createdAt,value
2022-09-09T00:01:26.358Z,0.90
2022-09-09T00:04:30.468Z,1.20
2022-09-09T00:07:42.382Z,1.60
2022-09-09T00:10:45.218Z,1.40
2022-09-09T00:13:52.644Z,1.50
2022-09-09T00:16:58.250Z,1.43
2022-09-09T00:20:05.061Z,1.97
2022-09-09T00:23:14.965Z,1.93
2022-09-09T00:26:22.543Z,1.50
2022-09-09T00:29:30.939Z,1.20
2022-09-09T00:32:36.635Z,1.13
2022-09-09T00:35:40.710Z,1.17
2022-09-09T00:38:46.172Z,0.97
2022-09-09T00:41:57.655Z,1.20
2022-09-09T00:45:13.077Z,1.13
2022-09-09T00:48:17.135Z,0.90
2022-09-09T00:51:25.708Z,1.30
2022-09-09T00:54:40.346Z,1.07
2022-09-09T00:57:43.419Z,1.03
2022-09-09T01:00:50.082Z,0.88
2022-09-09T01:03:55.489Z,1.00
2022-09-09T01:07:03.428Z,1.53
2022-09-09T01:10:09.364Z,0.90
2022-09-09T01:13:16.849Z,0.80
2022-09-09T01:16:21.065Z,1.10
2022-09-09T01:19:33.896Z,0.77
2022-09-09T01:22:39.091Z,1.13
2022-09-09T01:26:16.871Z,1.47
2022-09-09T01:29:20.957Z,0.90
2022-09-09T01:32:42.210Z,1.30
2022-09-09T01:35:49.223Z,1.03
2022-09-09T01:38:51.930Z,1.33
2022-09-09T01:41:57.066Z,0.85
2022-09-09T01:44:59.751Z,1.30
2022-09-09T01:48:03.986Z,1.35
2022-09-09T01:51:06.917Z,0.90
2022-09-09T01:54:10.026Z,1.55
2022-09-09T01:57:18.286Z,1.33
2022-09-09T02:00:21.094Z,1.00
2022-09-09T02:03:27.742Z,1.08
2022-09-09T02:06:33.222Z,1.47
2022-09-09T02:09:36.837Z,1.83
2022-09-09T02:12:42.730Z,1.00
2022-09-09T02:15:49.717Z,1.00
2022-09-09T02:18:55.030Z,0.80
2022-09-09T02:21:58.651Z,0.93
2022-09-09T02:25:02.379Z,0.60
2022-09-09T02:28:08.681Z,1.00
2022-09-09T02:31:11.517Z,0.80
2022-09-09T02:34:15.458Z,0.90
2022-09-09T02:37:20.911Z,0.50
2022-09-09T02:40:23.540Z,0.70
2022-09-09T02:43:28.074Z,0.88
2022-09-09T02:46:39.457Z,0.70
2022-09-09T02:49:46.287Z,0.50
2022-09-09T02:53:11.056Z,0.57
2022-09-09T02:56:17.313Z,0.60
2022-09-09T02:59:21.552Z,0.80
2022-09-09T03:02:26.285Z,0.50
2022-09-09T03:05:28.955Z,0.50
2022-09-09T03:08:31.798Z,0.70
2022-09-09T03:11:34.422Z,0.50
2022-09-09T03:14:39.131Z,0.50
2022-09-09T03:17:42.001Z,0.90
2022-09-09T03:20:44.640Z,0.80
2022-09-09T03:23:47.241Z,0.40
2022-09-09T03:26:51.482Z,0.55
2022-09-09T03:29:55.396Z,0.60
2022-09-09T03:32:58.640Z,0.70
2022-09-09T03:36:01.251Z,0.65
2022-09-09T03:39:04.877Z,0.43
2022-09-09T03:42:07.806Z,0.40
2022-09-09T03:45:12.496Z,0.40
2022-09-09T03:48:15.055Z,0.50
2022-09-09T03:51:17.852Z,0.40
2022-09-09T03:54:20.709Z,0.35
2022-09-09T03:57:23.290Z,0.70
2022-09-09T04:00:27.588Z,0.90
2022-09-09T04:03:31.018Z,0.40
2022-09-09T04:09:36.551Z,0.40
2022-09-09T04:12:38.999Z,0.70
2022-09-09T04:15:43.166Z,0.70
2022-09-09T04:18:45.797Z,0.40
2022-09-09T04:21:51.484Z,0.50
2022-09-09T04:24:53.964Z,0.40
2022-09-09T04:27:57.203Z,0.50
2022-09-09T04:31:06.481Z,0.70
2022-09-09T04:34:09.059Z,1.00
2022-09-09T04:37:11.695Z,0.82
2022-09-09T04:40:14.336Z,0.60
2022-09-09T04:43:17.411Z,1.10
2022-09-09T04:46:21.517Z,1.23
2022-09-09T04:49:24.202Z,1.40
2022-09-09T04:52:26.787Z,1.58
2022-09-09T04:55:29.712Z,1.75
2022-09-09T04:58:33.135Z,1.20
2022-09-09T05:04:39.876Z,1.80
2022-09-09T05:07:42.664Z,1.50
2022-09-09T05:10:45.332Z,1.50
2022-09-09T05:13:48.437Z,1.58
2022-09-09T05:16:52.377Z,1.25
2022-09-09T05:19:55.035Z,1.77
2022-09-09T05:22:58.373Z,2.10
2022-09-09T05:26:00.982Z,2.40
2022-09-09T05:29:03.498Z,2.00
2022-09-09T05:32:07.458Z,1.45
2022-09-09T05:35:10.981Z,1.73
2022-09-09T05:38:13.492Z,1.77
2022-09-09T05:41:17.357Z,2.10
2022-09-09T05:44:20.266Z,3.07
2022-09-09T05:47:24.279Z,2.08
2022-09-09T05:50:31.428Z,1.70
2022-09-09T05:53:35.151Z,3.07
2022-09-09T05:56:37.639Z,1.73
2022-09-09T05:59:40.264Z,2.33
2022-09-09T06:02:44.717Z,1.88
2022-09-09T06:05:47.429Z,1.43
2022-09-09T06:08:52.388Z,1.60
2022-09-09T06:11:56.016Z,1.77
2022-09-09T06:14:58.508Z,1.73
2022-09-09T06:18:02.523Z,1.40
2022-09-09T06:21:07.699Z,1.03
2022-09-09T06:24:11.184Z,1.00
2022-09-09T06:27:14.519Z,0.73
2022-09-09T06:33:22.143Z,1.63
2022-09-09T06:36:26.316Z,0.77
2022-09-09T06:39:29.045Z,0.97
2022-09-09T06:42:32.482Z,1.00
2022-09-09T06:45:37.633Z,0.80
2022-09-09T06:48:42.651Z,0.80
2022-09-09T06:51:45.117Z,1.23
2022-09-09T06:54:47.667Z,0.90
2022-09-09T06:57:51.166Z,0.98
2022-09-09T07:00:53.940Z,2.30
2022-09-09T07:03:59.823Z,2.20
2022-09-09T07:07:02.422Z,1.80
2022-09-09T07:10:06.240Z,2.10
2022-09-09T07:13:08.868Z,1.40
2022-09-09T07:16:13.550Z,1.17
2022-09-09T07:19:17.518Z,1.70
2022-09-09T07:22:21.259Z,1.80
2022-09-09T07:25:23.948Z,1.30
2022-09-09T07:28:27.221Z,2.22
2022-09-09T07:34:35.455Z,1.67
2022-09-09T07:37:38.525Z,1.00
2022-09-09T07:40:41.027Z,0.98
2022-09-09T07:43:45.120Z,1.33
2022-09-09T07:46:48.522Z,2.00
2022-09-09T07:49:52.563Z,0.83
2022-09-09T07:52:55.374Z,0.70
2022-09-09T07:56:04.955Z,1.00
2022-09-09T07:59:07.983Z,0.70
2022-09-09T08:02:11.957Z,1.27
2022-09-09T08:05:15.990Z,1.02
2022-09-09T08:08:18.602Z,0.63
2022-09-09T08:11:21.383Z,0.63
2022-09-09T08:14:24.549Z,0.88
2022-09-09T08:20:30.910Z,0.70
2022-09-09T08:23:33.817Z,0.77
2022-09-09T08:26:38.682Z,0.70
2022-09-09T08:29:41.290Z,0.70
2022-09-09T08:32:45.942Z,0.73
2022-09-09T08:35:53.933Z,0.50
2022-09-09T08:38:58.511Z,1.00
2022-09-09T08:42:12.769Z,0.70
2022-09-09T08:45:27.995Z,0.70
2022-09-09T08:48:42.807Z,0.60
2022-09-09T08:51:46.833Z,0.70
2022-09-09T08:54:52.606Z,1.00
2022-09-09T08:57:57.185Z,0.70
2022-09-09T09:01:12.192Z,0.80
2022-09-09T09:04:29.939Z,0.83
2022-09-09T09:07:44.507Z,0.70
2022-09-09T09:10:49.694Z,0.53
2022-09-09T09:13:56.585Z,0.40
2022-09-09T09:17:00.967Z,0.60
2022-09-09T09:20:05.736Z,0.70
2022-09-09T09:23:16.766Z,0.80
2022-09-09T09:26:20.033Z,0.97
2022-09-09T09:29:23.480Z,0.70
2022-09-09T09:32:27.276Z,0.57
2022-09-09T09:35:30.262Z,0.50
2022-09-09T09:41:58.598Z,1.23
2022-09-09T09:45:11.232Z,1.00
2022-09-09T09:48:14.937Z,0.50
2022-09-09T09:51:25.497Z,0.40
2022-09-09T09:54:31.042Z,0.40
2022-09-09T09:57:34.336Z,0.50
2022-09-09T10:03:41.417Z,0.43
2022-09-09T10:06:44.058Z,0.30
2022-09-09T10:09:49.991Z,0.40
2022-09-09T10:13:01.015Z,0.80
2022-09-09T10:16:11.925Z,0.50
2022-09-09T10:19:16.169Z,0.60
2022-09-09T10:22:28.379Z,0.50
2022-09-09T10:25:45.230Z,0.97
2022-09-09T10:29:09.312Z,1.27
2022-09-09T10:32:26.662Z,0.67
2022-09-09T10:35:34.591Z,0.70
2022-09-09T10:38:42.098Z,0.70
2022-09-09T10:41:50.337Z,0.80
2022-09-09T10:45:03.202Z,0.80
2022-09-09T10:48:18.049Z,1.10
2022-09-09T10:51:26.463Z,0.50
2022-09-09T10:54:37.643Z,1.00
2022-09-09T10:57:44.052Z,0.90
2022-09-09T11:00:49.022Z,0.80
2022-09-09T11:03:56.556Z,0.70
2022-09-09T11:06:59.524Z,1.38
2022-09-09T11:10:07.068Z,0.68
2022-09-09T11:13:19.431Z,0.63
2022-09-09T11:16:27.070Z,0.77
2022-09-09T11:19:35.148Z,0.73
2022-09-09T11:22:41.768Z,1.20
2022-09-09T11:25:48.417Z,0.77
2022-09-09T11:29:14.627Z,0.90
2022-09-09T11:32:31.414Z,0.30
2022-09-09T11:35:42.439Z,0.50
2022-09-09T11:38:47.751Z,0.20
2022-09-09T11:41:50.474Z,0.40
2022-09-09T11:44:56.076Z,0.43
2022-09-09T11:47:59.818Z,0.70
2022-09-09T11:51:06.197Z,0.30
2022-09-09T11:54:30.470Z,0.30
2022-09-09T11:57:34.849Z,0.20
2022-09-09T12:00:41.268Z,0.20
2022-09-09T12:03:47.093Z,0.40
2022-09-09T12:06:53.125Z,0.80
2022-09-09T12:10:00.554Z,0.60
2022-09-09T12:13:11.345Z,0.50
2022-09-09T12:16:35.423Z,0.30
2022-09-09T12:19:38.338Z,0.40
2022-09-09T12:22:48.087Z,0.17
2022-09-09T12:25:58.481Z,0.33
2022-09-09T12:29:07.978Z,0.23
2022-09-09T12:32:15.105Z,0.40
2022-09-09T12:35:22.694Z,0.70
2022-09-09T12:38:29.742Z,0.40
2022-09-09T12:41:32.294Z,0.30
2022-09-09T12:44:34.838Z,0.32
2022-09-09T12:47:42.583Z,0.30
2022-09-09T12:50:47.187Z,0.40
2022-09-09T12:53:51.245Z,0.33
2022-09-09T12:56:53.944Z,0.50
2022-09-09T13:00:07.542Z,0.35
2022-09-09T13:03:19.471Z,0.50
2022-09-09T13:06:28.638Z,0.60
2022-09-09T13:09:31.785Z,0.43
2022-09-09T13:12:34.813Z,0.40
2022-09-09T13:15:37.306Z,0.30
2022-09-09T13:18:43.116Z,0.40
2022-09-09T13:21:45.761Z,0.30
2022-09-09T13:24:48.500Z,0.28
2022-09-09T13:27:57.588Z,0.28
2022-09-09T13:31:04.498Z,0.22
2022-09-09T13:34:15.195Z,0.35
2022-09-09T13:37:24.598Z,0.63
2022-09-09T13:40:27.219Z,0.50
2022-09-09T13:43:30.805Z,0.30
2022-09-09T13:46:36.387Z,0.43
2022-09-09T13:49:40.333Z,0.35
2022-09-09T13:52:42.825Z,0.32
2022-09-09T13:55:48.280Z,0.22
2022-09-09T13:58:53.022Z,0.40
2022-09-09T14:01:55.555Z,0.57
2022-09-09T14:04:59.418Z,0.38
2022-09-09T14:08:02.437Z,0.60
2022-09-09T14:11:05.403Z,0.30
2022-09-09T14:14:07.944Z,0.65
2022-09-09T14:17:11.054Z,0.52
2022-09-09T14:20:16.320Z,0.65
2022-09-09T14:23:19.793Z,0.22
2022-09-09T14:26:22.429Z,0.50
2022-09-09T14:29:26.332Z,0.82
2022-09-09T14:32:30.165Z,0.40
2022-09-09T14:35:34.951Z,0.25
2022-09-09T14:38:40.379Z,0.50
2022-09-09T14:41:42.843Z,0.40
2022-09-09T14:44:45.383Z,0.30
2022-09-09T14:47:47.984Z,0.25
2022-09-09T14:50:51.798Z,0.40
2022-09-09T14:53:55.115Z,0.43
2022-09-09T14:56:58.552Z,0.32
2022-09-09T15:00:01.885Z,0.30
2022-09-09T15:03:05.035Z,0.35
2022-09-09T15:06:10.819Z,0.47
2022-09-09T15:09:13.558Z,0.35
2022-09-09T15:18:21.913Z,0.32
2022-09-09T15:24:29.036Z,0.73
2022-09-09T15:27:32.336Z,0.32
2022-09-09T15:30:34.957Z,0.40
2022-09-09T15:33:38.430Z,0.30
2022-09-09T15:36:44.047Z,0.35
2022-09-09T15:39:46.652Z,0.40
2022-09-09T15:42:49.858Z,0.40
2022-09-09T15:45:56.977Z,0.40
2022-09-09T15:49:01.070Z,0.50
2022-09-09T15:52:05.105Z,0.83
2022-09-09T15:55:09.154Z,0.40
2022-09-09T15:58:13.254Z,1.13
2022-09-09T16:01:17.698Z,0.60
2022-09-09T16:04:24.273Z,0.50
2022-09-09T16:07:28.210Z,0.50
2022-09-09T16:10:31.845Z,0.40
2022-09-09T16:13:35.791Z,0.40
2022-09-09T16:16:38.339Z,0.50
2022-09-09T16:19:40.949Z,0.60
2022-09-09T16:22:44.851Z,0.50
2022-09-09T16:25:55.395Z,0.43
2022-09-09T16:28:58.470Z,0.60
2022-09-09T16:35:07.937Z,0.60
2022-09-09T16:38:12.154Z,1.37
2022-09-09T16:41:16.197Z,0.50
2022-09-09T16:44:20.329Z,0.37
2022-09-09T16:47:25.482Z,0.63
2022-09-09T16:50:28.207Z,0.50
2022-09-09T16:53:32.099Z,0.47
2022-09-09T16:56:37.779Z,0.30
2022-09-09T16:59:40.366Z,1.20
2022-09-09T17:02:42.909Z,0.80
2022-09-09T17:05:45.568Z,0.50
2022-09-09T17:08:49.899Z,0.28
2022-09-09T17:11:53.326Z,0.33
2022-09-09T17:14:56.930Z,0.27
2022-09-09T17:17:59.914Z,0.33
2022-09-09T17:21:05.253Z,0.40
2022-09-09T17:24:09.466Z,0.50
2022-09-09T17:27:12.533Z,0.30
2022-09-09T17:30:16.027Z,0.43
2022-09-09T17:33:18.528Z,0.40
2022-09-09T17:36:23.041Z,0.70
2022-09-09T17:39:27.018Z,0.63
2022-09-09T17:42:29.526Z,1.40
2022-09-09T17:45:32.830Z,1.42
2022-09-09T17:48:36.080Z,0.70
2022-09-09T17:51:38.844Z,0.70
2022-09-09T17:54:42.943Z,0.50
2022-09-09T17:57:47.004Z,0.40
2022-09-09T18:00:50.666Z,0.90
2022-09-09T18:03:53.471Z,0.50
2022-09-09T18:06:56.423Z,0.60
2022-09-09T18:10:00.388Z,0.60
2022-09-09T18:13:03.053Z,0.50
2022-09-09T18:16:08.561Z,0.52
2022-09-09T18:19:13.810Z,0.53
2022-09-09T18:22:16.591Z,0.30
2022-09-09T18:25:20.463Z,0.70
2022-09-09T18:28:25.060Z,0.40
2022-09-09T18:31:29.125Z,0.77
2022-09-09T18:34:31.944Z,2.07
2022-09-09T18:37:36.052Z,0.85
2022-09-09T18:40:39.961Z,0.80
2022-09-09T18:43:43.286Z,1.07
2022-09-09T18:49:50.673Z,0.60
2022-09-09T18:52:53.258Z,0.60
2022-09-09T18:56:01.488Z,0.50
2022-09-09T18:59:06.911Z,1.10
2022-09-09T19:02:12.088Z,0.83
2022-09-09T19:05:14.604Z,0.90
2022-09-09T19:08:17.241Z,0.60
2022-09-09T19:11:24.126Z,0.88
2022-09-09T19:14:26.986Z,0.47
2022-09-09T19:17:30.394Z,0.52
2022-09-09T19:20:32.977Z,0.90
2022-09-09T19:23:35.498Z,0.65
2022-09-09T19:26:43.869Z,0.60
2022-09-09T19:29:47.678Z,0.73
2022-09-09T19:32:53.510Z,0.83
2022-09-09T19:35:59.064Z,0.97
2022-09-09T19:39:03.290Z,1.10
2022-09-09T19:42:07.271Z,0.70
2022-09-09T19:45:10.658Z,1.00
2022-09-09T19:51:18.529Z,0.70
2022-09-09T19:54:21.103Z,0.53
2022-09-09T19:57:28.585Z,0.90
2022-09-09T20:00:31.431Z,0.40
2022-09-09T20:03:34.184Z,0.43
2022-09-09T20:06:37.900Z,0.68
2022-09-09T20:09:40.370Z,0.80
2022-09-09T20:12:44.205Z,0.60
2022-09-09T20:15:47.049Z,0.67
2022-09-09T20:18:52.443Z,0.47
2022-09-09T20:21:55.591Z,0.60
2022-09-09T20:24:58.126Z,0.50
2022-09-09T20:28:02.000Z,0.60
2022-09-09T20:31:05.348Z,0.90
2022-09-09T20:40:15.439Z,0.53
2022-09-09T20:43:20.330Z,0.63
2022-09-09T20:46:24.953Z,0.87
2022-09-09T20:49:27.916Z,0.73
2022-09-09T20:52:30.450Z,0.50
2022-09-09T20:55:34.205Z,0.70
2022-09-09T20:58:38.150Z,0.50
2022-09-09T21:01:41.347Z,0.63
2022-09-09T21:07:47.306Z,0.50
2022-09-09T21:10:51.264Z,0.90
2022-09-09T21:13:56.462Z,0.50
2022-09-09T21:16:58.984Z,0.60
2022-09-09T21:20:02.094Z,0.50
2022-09-09T21:23:04.759Z,0.38
2022-09-09T21:26:07.576Z,0.50
2022-09-09T21:29:12.981Z,0.57
2022-09-09T21:32:15.466Z,0.43
2022-09-09T21:35:18.987Z,0.63
2022-09-09T21:38:23.494Z,0.80
2022-09-09T21:41:26.156Z,0.40
2022-09-09T21:44:30.050Z,0.70
2022-09-09T21:47:32.623Z,0.97
2022-09-09T21:50:37.001Z,1.45
2022-09-09T21:53:39.573Z,0.93
2022-09-09T21:56:42.921Z,0.50
2022-09-09T22:02:49.272Z,1.08
2022-09-09T22:05:53.956Z,0.60
2022-09-09T22:08:57.202Z,0.30
2022-09-09T22:11:59.700Z,0.60
2022-09-09T22:15:04.146Z,0.38
2022-09-09T22:18:06.766Z,0.70
2022-09-09T22:21:10.457Z,0.70
2022-09-09T22:24:13.048Z,0.43
2022-09-09T22:27:15.905Z,0.50
2022-09-09T22:30:20.413Z,0.63
2022-09-09T22:33:24.296Z,0.60
2022-09-09T22:36:27.363Z,1.03
2022-09-09T22:39:30.086Z,1.15
2022-09-09T22:42:32.553Z,0.55
2022-09-09T22:45:37.255Z,0.63
2022-09-09T22:48:40.289Z,0.57
2022-09-09T22:51:42.796Z,1.25
2022-09-09T22:54:46.462Z,0.77
2022-09-09T22:57:48.949Z,0.90
2022-09-09T23:00:53.013Z,0.80
2022-09-09T23:03:59.074Z,1.00
2022-09-09T23:07:02.289Z,0.60
2022-09-09T23:10:06.653Z,0.52
2022-09-09T23:13:09.492Z,0.67
2022-09-09T23:16:14.839Z,0.60
2022-09-09T23:19:17.763Z,0.93
2022-09-09T23:22:21.029Z,0.82
2022-09-09T23:25:23.804Z,0.77
2022-09-09T23:28:26.759Z,0.47
2022-09-09T23:31:33.844Z,0.70
2022-09-09T23:34:37.904Z,0.87
2022-09-09T23:37:40.381Z,0.93
2022-09-09T23:40:46.916Z,1.10
2022-09-09T23:43:49.556Z,1.10
2022-09-09T23:46:53.460Z,0.52
2022-09-09T23:49:56.001Z,0.63
2022-09-09T23:52:59.183Z,0.77
2022-09-09T23:56:01.753Z,0.68
2022-09-09T23:59:07.468Z,0.80
